Time;durP1;ratioP1;P1;durP2;ratioP2;P2;SDS_P1;SDS_P2;PMS_P1;PMS_P2;Temp;Humidity;BMP_temperature;BMP_pressure;BME280_temperature;BME280_humidity;BME280_pressure;Samples;Min_cycle;Max_cycle;Signal;HPM_P1;HPM_P2
2021/09/21 00:00:10;;;;;;;1.33;1.33;;;22.80;50.40;;;;;;5026624;28;20726;-71
2021/09/21 00:02:37;;;;;;;1.33;1.23;;;22.80;50.40;;;;;;5024583;28;20038;-75
2021/09/21 00:05:06;;;;;;;1.45;1.35;;;22.70;50.40;;;;;;5031440;28;20749;-75
2021/09/21 00:07:33;;;;;;;1.55;1.30;;;22.80;50.40;;;;;;5029697;28;20128;-75
2021/09/21 00:10:00;;;;;;;1.40;1.30;;;22.80;50.40;;;;;;5027674;28;20041;-72
2021/09/21 00:12:27;;;;;;;1.50;1.40;;;22.80;50.40;;;;;;5044611;28;20586;-76
2021/09/21 00:14:54;;;;;;;2.00;1.38;;;22.80;50.40;;;;;;5050898;28;20435;-75
2021/09/21 00:17:21;;;;;;;1.35;1.25;;;22.80;50.30;;;;;;5051103;28;20132;-75
2021/09/21 00:19:48;;;;;;;1.42;1.33;;;22.80;50.40;;;;;;5047492;28;20037;-72
2021/09/21 00:22:15;;;;;;;2.65;1.58;;;22.70;50.30;;;;;;5042435;28;20084;-77
2021/09/21 00:24:42;;;;;;;1.30;1.13;;;22.80;50.40;;;;;;5033199;28;20049;-75
2021/09/21 00:27:09;;;;;;;1.50;1.40;;;22.80;50.40;;;;;;5032766;28;20132;-72
2021/09/21 00:29:37;;;;;;;1.60;1.20;;;22.80;50.40;;;;;;5049713;28;20525;-71
2021/09/21 00:32:04;;;;;;;1.40;1.30;;;22.70;50.30;;;;;;5041197;28;20180;-76
2021/09/21 00:34:37;;;;;;;1.17;1.08;;;22.70;50.30;;;;;;5050808;28;20136;-75
2021/09/21 00:37:06;;;;;;;1.27;1.20;;;22.80;50.30;;;;;;5054274;28;20084;-76
2021/09/21 00:39:33;;;;;;;1.30;1.20;;;22.80;50.30;;;;;;5049614;28;20128;-71
2021/09/21 00:42:00;;;;;;;1.20;1.20;;;22.80;50.20;;;;;;5024695;28;20079;-71
2021/09/21 00:44:27;;;;;;;1.02;1.02;;;22.80;50.20;;;;;;5053782;28;20041;-75
2021/09/21 00:46:54;;;;;;;2.10;1.60;;;22.80;50.20;;;;;;5049967;28;20127;-75
2021/09/21 00:49:22;;;;;;;1.45;1.35;;;22.80;50.70;;;;;;5050963;28;20231;-70
2021/09/21 00:51:49;;;;;;;1.60;1.50;;;22.80;50.10;;;;;;5039931;28;20155;-75
2021/09/21 00:54:17;;;;;;;1.10;1.10;;;22.80;50.10;;;;;;5050768;28;20051;-74
2021/09/21 00:56:44;;;;;;;1.42;1.33;;;22.80;50.10;;;;;;5050052;28;20056;-75
2021/09/21 00:59:12;;;;;;;1.02;1.02;;;22.80;50.10;;;;;;5050804;28;20049;-75
2021/09/21 01:01:39;;;;;;;0.98;0.95;;;22.80;50.10;;;;;;5020174;28;20056;-74
2021/09/21 01:04:06;;;;;;;1.45;1.35;;;22.80;50.10;;;;;;5049584;28;20052;-74
2021/09/21 01:06:33;;;;;;;1.40;1.30;;;22.80;50.70;;;;;;5050360;28;20072;-74
2021/09/21 01:09:01;;;;;;;1.42;1.30;;;22.80;50.10;;;;;;5049971;28;20091;-71
2021/09/21 01:11:28;;;;;;;1.38;1.27;;;22.80;50.10;;;;;;5026009;28;20046;-74
2021/09/21 01:13:55;;;;;;;0.90;0.90;;;22.80;50.10;;;;;;5028276;28;20129;-75
2021/09/21 01:16:22;;;;;;;1.33;1.23;;;22.70;50.10;;;;;;5029484;28;20052;-71
2021/09/21 01:18:50;;;;;;;1.20;1.10;;;22.70;50.20;;;;;;5030742;28;20116;-75
2021/09/21 01:21:32;;;;;;;0.85;0.75;;;22.70;50.30;;;;;;5019402;28;20045;-75
2021/09/21 01:23:59;;;;;;;1.42;1.33;;;22.70;50.30;;;;;;5029443;28;20494;-74
2021/09/21 01:26:26;;;;;;;1.85;1.75;;;22.60;50.40;;;;;;5029506;28;20072;-74
2021/09/21 01:28:53;;;;;;;1.35;1.25;;;22.70;50.50;;;;;;5029677;28;20501;-75
2021/09/21 01:31:20;;;;;;;1.05;1.02;;;22.60;50.50;;;;;;5001628;28;20084;-71
2021/09/21 01:33:50;;;;;;;0.82;0.82;;;22.60;50.50;;;;;;5008457;28;20056;-74
2021/09/21 01:36:18;;;;;;;1.30;1.20;;;22.60;50.50;;;;;;5029760;28;20133;-71
2021/09/21 01:38:45;;;;;;;1.48;1.38;;;22.60;50.50;;;;;;5029993;28;20079;-74
2021/09/21 01:41:19;;;;;;;1.10;0.98;;;22.60;50.50;;;;;;5017730;28;20153;-71
2021/09/21 01:43:47;;;;;;;1.10;1.10;;;22.50;50.50;;;;;;5029890;28;20132;-74
2021/09/21 01:46:23;;;;;;;0.90;0.90;;;22.60;50.60;;;;;;5028677;28;20145;-72
2021/09/21 01:48:50;;;;;;;1.10;1.10;;;22.60;50.50;;;;;;5030743;28;20049;-76
2021/09/21 01:51:30;;;;;;;1.30;1.10;;;22.60;50.50;;;;;;5019509;28;20049;-71
2021/09/21 01:54:12;;;;;;;1.10;1.00;;;22.60;50.50;;;;;;5029701;28;20081;-72
2021/09/21 01:59:36;;;;;;;1.13;1.02;;;22.60;50.40;;;;;;5028365;28;20534;-71
2021/09/21 02:02:03;;;;;;;1.25;1.15;;;22.60;50.40;;;;;;5021086;28;20109;-76
2021/09/21 02:04:31;;;;;;;0.80;0.80;;;22.60;50.40;;;;;;5027070;28;20574;-76
2021/09/21 02:06:58;;;;;;;1.25;1.15;;;22.60;50.40;;;;;;5028864;28;20101;-76
2021/09/21 02:09:25;;;;;;;1.00;1.00;;;22.60;50.40;;;;;;5028137;28;20088;-75
2021/09/21 02:11:52;;;;;;;1.20;1.20;;;22.60;50.40;;;;;;5031186;28;20049;-72
2021/09/21 02:14:22;;;;;;;1.00;1.00;;;22.60;50.30;;;;;;5047944;28;20048;-76
2021/09/21 02:16:54;;;;;;;1.40;1.30;;;22.60;50.30;;;;;;5048508;28;20069;-76
2021/09/21 02:19:26;;;;;;;1.95;1.23;;;22.60;50.30;;;;;;5048741;28;20057;-75
2021/09/21 02:21:53;;;;;;;1.10;1.05;;;22.60;50.30;;;;;;5004497;28;20041;-76
2021/09/21 02:24:22;;;;;;;1.30;1.20;;;22.70;50.30;;;;;;5047668;28;20112;-72
2021/09/21 02:26:50;;;;;;;1.02;1.02;;;22.60;50.20;;;;;;5048738;28;20054;-72
2021/09/21 02:29:18;;;;;;;1.08;1.08;;;22.60;50.20;;;;;;5048617;28;20045;-77
2021/09/21 02:31:45;;;;;;;1.15;1.10;;;22.60;50.20;;;;;;5041883;28;20135;-76
2021/09/21 02:34:12;;;;;;;1.02;1.00;;;22.70;50.20;;;;;;5047685;28;20120;-72
2021/09/21 02:36:41;;;;;;;0.73;0.73;;;22.60;50.10;;;;;;5048052;28;20045;-76
2021/09/21 02:39:12;;;;;;;0.90;0.90;;;22.70;50.10;;;;;;5047593;28;20084;-72
2021/09/21 02:41:39;;;;;;;1.08;0.80;;;22.70;50.00;;;;;;5035804;28;20083;-72
2021/09/21 02:44:07;;;;;;;1.05;1.00;;;22.70;50.00;;;;;;5048170;28;20045;-75
2021/09/21 02:46:34;;;;;;;1.00;1.00;;;22.70;50.00;;;;;;5048241;28;20525;-76
2021/09/21 02:49:01;;;;;;;0.80;0.80;;;22.70;50.00;;;;;;5030976;28;20072;-76
2021/09/21 02:51:28;;;;;;;0.95;0.93;;;22.70;49.90;;;;;;5036755;28;20128;-72
2021/09/21 02:53:56;;;;;;;0.90;0.90;;;22.70;49.90;;;;;;5028535;28;20073;-72
2021/09/21 02:56:23;;;;;;;0.90;0.90;;;22.70;49.90;;;;;;5025981;28;20041;-76
2021/09/21 02:58:50;;;;;;;0.70;0.70;;;22.70;49.90;;;;;;5027365;28;20059;-76
2021/09/21 03:01:19;;;;;;;0.73;0.73;;;22.70;49.90;;;;;;5021143;28;20656;-72
2021/09/21 03:03:51;;;;;;;0.73;0.73;;;22.70;50.00;;;;;;5031588;28;20169;-76
2021/09/21 03:06:23;;;;;;;0.80;0.80;;;22.60;50.10;;;;;;5026682;28;20053;-76
2021/09/21 03:08:54;;;;;;;0.90;0.90;;;22.60;50.20;;;;;;5027682;28;20455;-72
2021/09/21 03:11:26;;;;;;;0.80;0.80;;;22.60;50.20;;;;;;5018861;28;20057;-71
2021/09/21 03:19:28;;;;;;;0.90;0.90;;;22.50;50.40;;;;;;5025417;28;20095;-75
2021/09/21 03:21:57;;;;;;;1.15;0.82;;;22.50;50.30;;;;;;5015135;28;20045;-75
2021/09/21 03:24:24;;;;;;;0.80;0.80;;;22.50;50.30;;;;;;5027690;28;20042;-72
2021/09/21 03:26:51;;;;;;;1.35;1.25;;;22.50;50.40;;;;;;5027968;28;20128;-75
2021/09/21 03:29:18;;;;;;;1.00;1.00;;;22.50;50.40;;;;;;5027899;28;20072;-75
2021/09/21 03:31:45;;;;;;;0.80;0.80;;;22.50;50.40;;;;;;5017382;28;20051;-75
2021/09/21 03:34:12;;;;;;;0.90;0.90;;;22.50;50.30;;;;;;5047711;28;20128;-80
2021/09/21 03:36:39;;;;;;;1.08;0.98;;;22.50;50.30;;;;;;5048117;28;20151;-76
2021/09/21 03:39:06;;;;;;;1.05;1.05;;;22.50;50.20;;;;;;5033024;28;20100;-72
2021/09/21 03:41:33;;;;;;;0.80;0.80;;;22.50;50.20;;;;;;5006271;28;20139;-76
2021/09/21 03:44:01;;;;;;;1.00;1.00;;;22.50;50.20;;;;;;5041721;28;20154;-76
2021/09/21 03:46:28;;;;;;;1.40;1.30;;;22.50;50.20;;;;;;5026332;28;20085;-76
2021/09/21 03:48:56;;;;;;;0.98;0.90;;;22.50;50.20;;;;;;5027972;28;20049;-76
2021/09/21 03:51:23;;;;;;;1.17;1.08;;;22.50;50.20;;;;;;5029177;28;20065;-74
2021/09/21 03:53:51;;;;;;;1.00;1.00;;;22.50;50.20;;;;;;5025897;28;20132;-72
2021/09/21 03:56:18;;;;;;;0.80;0.80;;;22.50;50.20;;;;;;5023276;28;20095;-76
2021/09/21 03:58:45;;;;;;;0.80;0.80;;;22.50;50.10;;;;;;5026384;28;20073;-75
2021/09/21 04:01:43;;;;;;;0.90;0.90;;;22.50;50.10;;;;;;5034093;28;20044;-73
2021/09/21 04:04:10;;;;;;;0.88;0.88;;;22.50;50.00;;;;;;5046041;28;20041;-75
2021/09/21 04:06:37;;;;;;;0.80;0.80;;;22.50;50.00;;;;;;5047111;28;20140;-76
2021/09/21 04:09:04;;;;;;;1.00;0.90;;;22.60;50.00;;;;;;5047783;28;20074;-72
2021/09/21 04:11:31;;;;;;;0.70;0.70;;;22.50;49.90;;;;;;5040985;28;20139;-75
2021/09/21 04:14:00;;;;;;;0.73;0.73;;;22.60;49.90;;;;;;5050839;28;20041;-76
2021/09/21 04:16:29;;;;;;;0.85;0.85;;;22.50;49.90;;;;;;5033244;28;20132;-76
2021/09/21 04:19:00;;;;;;;0.60;0.60;;;22.60;49.90;;;;;;5050918;28;20136;-76
2021/09/21 04:21:27;;;;;;;0.82;0.80;;;22.60;49.90;;;;;;5038861;28;20047;-75
2021/09/21 04:23:55;;;;;;;0.50;0.50;;;22.60;49.90;;;;;;5049558;28;20533;-75
2021/09/21 04:26:22;;;;;;;0.60;0.60;;;22.60;49.80;;;;;;5051025;28;20128;-75
2021/09/21 04:28:49;;;;;;;0.70;0.70;;;22.60;49.80;;;;;;5050760;28;20083;-75
2021/09/21 04:31:22;;;;;;;1.10;1.00;;;22.60;49.80;;;;;;5042568;28;20044;-71
2021/09/21 04:33:51;;;;;;;0.73;0.73;;;22.60;49.70;;;;;;5048068;28;20124;-75
2021/09/21 04:36:19;;;;;;;0.77;0.77;;;22.60;49.70;;;;;;5050676;28;20071;-75
2021/09/21 04:38:47;;;;;;;0.75;0.75;;;22.60;49.70;;;;;;5050424;28;20135;-75
2021/09/21 04:41:19;;;;;;;0.70;0.70;;;22.60;49.70;;;;;;5040124;28;20478;-75
2021/09/21 04:43:47;;;;;;;0.57;0.57;;;22.60;49.60;;;;;;5038995;28;20061;-75
2021/09/21 04:46:14;;;;;;;1.13;1.02;;;22.60;49.70;;;;;;5023000;28;20049;-75
2021/09/21 04:48:41;;;;;;;0.80;0.80;;;22.60;49.80;;;;;;5019114;28;20048;-75
2021/09/21 04:51:08;;;;;;;0.68;0.68;;;22.50;49.80;;;;;;5015598;28;20061;-72
2021/09/21 04:53:35;;;;;;;0.80;0.80;;;22.50;50.40;;;;;;5019165;28;20103;-71
2021/09/21 04:56:03;;;;;;;0.70;0.70;;;22.60;49.90;;;;;;5027340;28;20076;-75
2021/09/21 04:58:30;;;;;;;0.60;0.60;;;22.50;49.90;;;;;;5018782;28;20080;-75
2021/09/21 05:01:25;;;;;;;0.65;0.65;;;22.50;49.90;;;;;;5018631;28;20707;-71
2021/09/21 05:03:53;;;;;;;0.70;0.70;;;22.50;49.90;;;;;;5019287;28;20052;-76
2021/09/21 05:06:20;;;;;;;0.70;0.70;;;22.50;49.90;;;;;;5014042;28;20060;-76
2021/09/21 05:08:47;;;;;;;0.60;0.60;;;22.50;49.80;;;;;;5032723;28;20229;-75
2021/09/21 05:11:14;;;;;;;0.80;0.80;;;22.50;49.60;;;;;;5036485;28;20045;-70
2021/09/21 05:13:41;;;;;;;0.80;0.80;;;22.60;49.40;;;;;;5023439;28;20050;-74
2021/09/21 05:16:08;;;;;;;0.77;0.77;;;22.60;49.10;;;;;;5026442;28;20124;-71
2021/09/21 05:18:35;;;;;;;0.88;0.88;;;22.60;48.90;;;;;;5021299;28;20048;-76
2021/09/21 05:21:36;;;;;;;1.02;0.65;;;22.70;48.80;;;;;;5013526;28;20118;-69
2021/09/21 05:24:05;;;;;;;0.80;0.80;;;22.70;48.70;;;;;;5012927;28;20194;-65
2021/09/21 05:26:32;;;;;;;0.77;0.77;;;22.70;48.90;;;;;;5017976;28;20045;-66
2021/09/21 05:28:59;;;;;;;2.20;0.82;;;22.70;49.20;;;;;;5001353;28;20046;-66
2021/09/21 05:31:27;;;;;;;1.50;1.30;;;22.70;49.30;;;;;;5016956;28;20170;-70
2021/09/21 05:33:55;;;;;;;0.63;0.63;;;22.70;49.20;;;;;;5011678;28;20144;-69
2021/09/21 05:36:23;;;;;;;0.88;0.88;;;22.70;49.30;;;;;;5010560;28;20081;-69
2021/09/21 05:38:50;;;;;;;1.38;1.00;;;22.80;49.40;;;;;;5011102;28;20184;-64
2021/09/21 05:41:17;;;;;;;1.40;1.25;;;22.70;49.30;;;;;;5006807;28;20146;-68
2021/09/21 05:43:44;;;;;;;1.92;0.80;;;22.80;49.20;;;;;;5003482;28;20042;-64
2021/09/21 05:46:12;;;;;;;1.20;1.10;;;22.80;49.20;;;;;;5014857;28;20445;-65
2021/09/21 05:48:39;;;;;;;0.95;0.93;;;22.80;49.20;;;;;;5013849;28;20669;-64
2021/09/21 05:51:13;;;;;;;2.80;1.30;;;22.80;49.00;;;;;;5010534;28;21485;-64
2021/09/21 05:53:40;;;;;;;0.90;0.88;;;22.80;48.80;;;;;;5012253;28;20107;-64
2021/09/21 05:56:07;;;;;;;1.23;1.13;;;22.80;48.80;;;;;;5014792;28;20489;-67
2021/09/21 05:58:34;;;;;;;4.60;0.82;;;22.90;49.10;;;;;;4999952;28;20057;-68
2021/09/21 06:01:08;;;;;;;1.20;0.80;;;22.90;49.00;;;;;;5004534;28;20805;-67
2021/09/21 06:03:35;;;;;;;2.40;1.00;;;22.90;48.40;;;;;;5008172;28;20427;-69
2021/09/21 06:06:03;;;;;;;4.47;0.95;;;23.00;48.00;;;;;;5014559;28;20045;-66
2021/09/21 06:08:30;;;;;;;1.70;1.15;;;23.00;47.80;;;;;;5016106;28;20037;-65
2021/09/21 06:11:43;;;;;;;3.80;1.50;;;23.00;47.70;;;;;;5014581;28;20437;-70
2021/09/21 06:14:15;;;;;;;3.58;1.60;;;23.10;47.70;;;;;;5006815;28;20149;-68
2021/09/21 06:16:42;;;;;;;3.33;2.08;;;23.20;47.40;;;;;;5007392;28;20045;-68
2021/09/21 06:19:09;;;;;;;2.03;1.83;;;23.20;47.20;;;;;;5020843;28;20141;-71
2021/09/21 06:21:47;;;;;;;3.03;2.00;;;23.20;46.90;;;;;;5008570;28;20033;-73
2021/09/21 06:27:56;;;;;;;10.30;2.13;;;23.30;46.70;;;;;;5007272;28;20076;-70
2021/09/21 06:31:24;;;;;;;6.00;2.28;;;23.30;46.60;;;;;;5000403;28;20068;-70
2021/09/21 06:34:15;;;;;;;2.80;2.20;;;23.30;46.20;;;;;;5001477;28;20053;-73
2021/09/21 06:36:43;;;;;;;2.65;2.03;;;23.30;45.90;;;;;;5007924;28;20519;-67
2021/09/21 06:39:10;;;;;;;2.80;2.30;;;23.30;45.70;;;;;;4999905;28;20133;-69
2021/09/21 06:52:48;;;;;;;3.22;2.92;;;23.50;45.80;;;;;;5002860;23;20051;-72
2021/09/21 06:55:16;;;;;;;4.38;3.35;;;23.50;46.30;;;;;;4952043;28;20125;-67
2021/09/21 06:58:03;;;;;;;4.32;2.95;;;23.50;45.50;;;;;;4978549;28;20588;-70
2021/09/21 07:07:09;;;;;;;4.40;3.33;;;23.60;45.30;;;;;;5340624;23;20049;-68
2021/09/21 07:10:51;;;;;;;9.38;3.97;;;23.60;44.70;;;;;;4973226;28;20394;-72
2021/09/21 07:13:57;;;;;;;4.60;4.20;;;23.60;43.90;;;;;;4988051;28;20060;-73
2021/09/21 07:16:25;;;;;;;4.38;3.88;;;23.40;43.80;;;;;;4977171;28;20112;-74
2021/09/21 07:18:52;;;;;;;6.90;3.78;;;23.30;43.90;;;;;;4996188;28;20049;-71
2021/09/21 07:24:42;;;;;;;6.10;4.35;;;23.00;44.70;;;;;;4991714;28;21499;-71
2021/09/21 07:27:09;;;;;;;5.25;4.50;;;22.90;44.50;;;;;;4999469;28;20046;-74
2021/09/21 07:29:36;;;;;;;7.88;4.97;;;22.80;44.20;;;;;;4998062;28;20050;-71
2021/09/21 07:32:04;;;;;;;5.95;4.15;;;22.70;44.10;;;;;;4992394;28;20132;-72
2021/09/21 07:34:32;;;;;;;5.68;4.32;;;22.60;44.60;;;;;;4977505;28;20438;-75
2021/09/21 07:36:59;;;;;;;6.85;4.15;;;22.50;45.00;;;;;;4998148;28;20034;-68
2021/09/21 07:39:26;;;;;;;9.18;4.10;;;22.40;45.30;;;;;;5000446;28;20144;-69
2021/09/21 07:41:54;;;;;;;4.32;3.38;;;22.40;45.40;;;;;;4988892;28;20042;-71
2021/09/21 07:44:21;;;;;;;5.95;3.90;;;22.30;45.70;;;;;;4993549;28;20108;-72
2021/09/21 07:46:49;;;;;;;5.18;4.32;;;22.30;45.70;;;;;;4980062;28;20136;-72
2021/09/21 07:49:16;;;;;;;8.15;3.00;;;22.30;46.00;;;;;;5001005;28;20053;-74
2021/09/21 07:51:47;;;;;;;5.40;4.13;;;22.30;46.60;;;;;;4994461;28;20224;-72
2021/09/21 07:54:14;;;;;;;5.32;3.78;;;22.30;46.20;;;;;;5000007;28;20059;-71
2021/09/21 07:56:41;;;;;;;6.30;4.43;;;22.30;45.90;;;;;;5001961;28;20410;-72
2021/09/21 07:59:10;;;;;;;5.97;2.78;;;22.30;44.90;;;;;;5003450;28;20056;-67
2021/09/21 08:01:53;;;;;;;3.83;3.15;;;22.30;45.70;;;;;;4993164;28;20044;-65
2021/09/21 08:04:21;;;;;;;9.30;3.10;;;22.30;46.70;;;;;;4994829;28;20072;-67
2021/09/21 08:06:49;;;;;;;3.25;2.50;;;22.40;47.00;;;;;;4987062;28;20081;-68
2021/09/21 08:09:16;;;;;;;5.25;2.75;;;22.40;47.20;;;;;;5001679;28;20046;-69
2021/09/21 08:12:06;;;;;;;3.50;2.63;;;22.50;47.30;;;;;;4991714;28;20136;-67
2021/09/21 08:14:37;;;;;;;3.60;2.88;;;22.70;47.40;;;;;;4999400;28;20046;-74
2021/09/21 08:17:06;;;;;;;3.38;2.70;;;22.80;47.30;;;;;;5001377;28;20114;-69
2021/09/21 08:19:34;;;;;;;4.63;2.88;;;22.80;47.30;;;;;;5002043;28;20049;-75
2021/09/21 08:22:02;;;;;;;3.28;2.75;;;22.90;47.30;;;;;;4992867;28;20058;-68
2021/09/21 08:24:29;;;;;;;2.78;2.58;;;23.00;47.40;;;;;;4980359;28;20483;-72
2021/09/21 08:26:56;;;;;;;3.08;2.72;;;23.10;47.30;;;;;;5001181;28;20928;-70
2021/09/21 08:29:33;;;;;;;5.25;2.58;;;23.20;47.30;;;;;;5007796;28;20141;-71
2021/09/21 08:32:00;;;;;;;4.80;2.45;;;23.20;47.00;;;;;;4977283;28;20851;-61
2021/09/21 08:34:27;;;;;;;6.15;2.78;;;23.30;47.00;;;;;;4997235;28;20054;-62
2021/09/21 08:36:55;;;;;;;4.53;2.90;;;23.30;46.90;;;;;;4999351;28;20168;-61
2021/09/21 08:39:22;;;;;;;5.95;2.58;;;23.40;46.80;;;;;;4998656;28;20854;-67
2021/09/21 08:41:50;;;;;;;4.00;2.60;;;23.50;46.80;;;;;;4993050;28;20056;-70
2021/09/21 08:44:18;;;;;;;3.17;2.08;;;23.50;46.70;;;;;;4994816;28;20053;-66
2021/09/21 08:46:46;;;;;;;3.38;2.25;;;23.60;46.60;;;;;;5001680;28;20498;-67
2021/09/21 08:49:15;;;;;;;3.78;2.42;;;23.60;46.50;;;;;;5009805;28;20054;-72
2021/09/21 08:51:43;;;;;;;2.50;2.30;;;23.60;46.40;;;;;;4993418;28;20169;-66
2021/09/21 08:54:10;;;;;;;4.50;2.40;;;23.70;46.40;;;;;;5004255;28;20140;-66
2021/09/21 08:56:40;;;;;;;4.78;2.33;;;23.70;46.20;;;;;;5002672;28;20479;-67
2021/09/21 08:59:11;;;;;;;3.13;2.67;;;23.80;46.20;;;;;;5002098;28;20046;-69
2021/09/21 09:05:09;;;;;;;4.75;2.65;;;23.80;46.00;;;;;;5004217;28;20077;-68
2021/09/21 09:07:51;;;;;;;2.55;2.00;;;23.90;46.00;;;;;;5002791;28;20053;-62
2021/09/21 09:10:38;;;;;;;2.42;2.22;;;23.90;45.80;;;;;;5001950;28;20149;-63
2021/09/21 09:13:35;;;;;;;4.05;3.08;;;24.00;45.70;;;;;;4998994;28;20111;-65
2021/09/21 09:16:10;;;;;;;2.10;1.90;;;24.10;45.50;;;;;;5021470;28;20123;-65
2021/09/21 09:18:37;;;;;;;4.70;2.95;;;24.10;45.30;;;;;;5000781;28;20483;-69
2021/09/21 09:21:04;;;;;;;2.17;2.05;;;24.10;45.20;;;;;;5000986;28;20050;-65
2021/09/21 09:23:32;;;;;;;5.05;2.30;;;24.20;44.90;;;;;;5021769;28;20045;-64
2021/09/21 09:25:59;;;;;;;2.67;1.80;;;24.30;44.90;;;;;;5018762;28;20050;-71
2021/09/21 09:28:27;;;;;;;2.47;2.28;;;24.30;44.70;;;;;;5017811;28;20108;-66
2021/09/21 09:30:56;;;;;;;2.50;2.30;;;24.40;44.70;;;;;;5018268;28;20049;-65
2021/09/21 09:33:23;;;;;;;2.10;1.90;;;24.40;44.50;;;;;;5017793;28;20050;-66
2021/09/21 09:35:51;;;;;;;4.40;1.98;;;24.50;44.50;;;;;;5017451;28;20086;-68
2021/09/21 09:38:21;;;;;;;3.03;2.25;;;24.50;44.50;;;;;;5017899;28;20049;-69
2021/09/21 09:40:53;;;;;;;2.10;1.90;;;24.50;44.20;;;;;;5017804;28;20137;-73
2021/09/21 09:43:24;;;;;;;2.13;2.03;;;24.60;44.00;;;;;;5017497;28;20414;-64
2021/09/21 09:45:54;;;;;;;2.67;2.30;;;24.60;44.20;;;;;;5017725;28;20125;-63
2021/09/21 09:48:23;;;;;;;2.80;2.38;;;24.50;44.00;;;;;;5017520;28;20046;-64
2021/09/21 09:50:53;;;;;;;3.90;2.72;;;24.60;43.80;;;;;;5017541;28;20074;-65
2021/09/21 09:53:23;;;;;;;2.80;2.28;;;24.70;43.80;;;;;;5000723;28;20085;-70
2021/09/21 09:55:58;;;;;;;2.20;2.00;;;24.70;43.60;;;;;;4996383;28;20085;-64
2021/09/21 09:58:26;;;;;;;2.65;1.95;;;24.70;43.30;;;;;;5000083;28;20140;-63
2021/09/21 10:00:54;;;;;;;2.22;2.00;;;24.70;43.00;;;;;;4995703;28;20046;-67
2021/09/21 10:03:23;;;;;;;4.30;2.28;;;24.80;42.80;;;;;;5037264;28;20085;-72
2021/09/21 10:05:51;;;;;;;3.10;2.80;;;24.80;40.70;;;;;;5019491;28;20457;-66
2021/09/21 10:08:19;;;;;;;2.85;2.65;;;24.80;37.70;;;;;;5037642;28;20060;-66
2021/09/21 10:10:47;;;;;;;2.50;2.25;;;24.60;34.70;;;;;;5039026;28;20053;-67
2021/09/21 10:13:17;;;;;;;3.38;2.10;;;24.50;34.10;;;;;;5036921;28;20064;-66
2021/09/21 10:15:46;;;;;;;4.70;2.85;;;24.30;33.40;;;;;;5036792;28;20132;-65
2021/09/21 10:18:16;;;;;;;3.63;2.10;;;24.20;33.90;;;;;;5036415;28;20465;-63
2021/09/21 10:20:59;;;;;;;2.40;2.20;;;24.20;35.50;;;;;;4997051;28;20125;-62
2021/09/21 10:23:39;;;;;;;2.10;2.00;;;24.20;36.80;;;;;;4992894;28;20270;-70
2021/09/21 10:26:13;;;;;;;2.45;2.15;;;24.20;37.80;;;;;;5003022;28;20578;-66
2021/09/21 10:28:44;;;;;;;3.83;2.42;;;24.30;38.40;;;;;;4983456;28;20179;-62
2021/09/21 10:31:40;;;;;;;1.67;1.58;;;24.40;38.80;;;;;;4995853;28;20133;-70
2021/09/21 10:34:13;;;;;;;1.70;1.60;;;24.50;39.00;;;;;;5000280;28;20131;-61
2021/09/21 10:36:49;;;;;;;9.48;1.90;;;24.50;39.20;;;;;;4986314;28;20709;-62
2021/09/21 10:39:19;;;;;;;1.85;1.70;;;24.60;39.20;;;;;;5001700;28;20113;-68
2021/09/21 10:42:06;;;;;;;2.85;1.73;;;24.70;39.20;;;;;;4992651;28;20133;-66
2021/09/21 10:44:33;;;;;;;1.63;1.40;;;24.70;39.10;;;;;;4980957;28;20082;-62
2021/09/21 10:47:03;;;;;;;3.20;1.80;;;24.80;39.30;;;;;;4998768;28;20085;-63
2021/09/21 10:49:37;;;;;;;2.50;1.30;;;24.80;39.90;;;;;;4998637;28;20058;-65
2021/09/21 10:52:10;;;;;;;4.35;2.00;;;24.90;39.20;;;;;;4998704;28;20444;-68
2021/09/21 10:54:44;;;;;;;2.25;1.90;;;24.90;38.90;;;;;;4997558;28;20050;-64
2021/09/21 10:57:25;;;;;;;2.10;1.45;;;24.90;38.60;;;;;;4994119;28;20056;-67
2021/09/21 10:59:56;;;;;;;2.20;1.70;;;25.00;38.70;;;;;;4999247;28;21866;-64
2021/09/21 11:05:47;;;;;;;1.40;1.30;;;25.10;38.60;;;;;;4996855;28;20049;-66
2021/09/21 11:08:16;;;;;;;3.63;1.30;;;25.10;36.90;;;;;;5001368;28;20060;-65
2021/09/21 11:11:07;;;;;;;1.17;1.10;;;25.10;36.30;;;;;;4998133;28;20048;-67
2021/09/21 11:13:41;;;;;;;1.42;1.33;;;25.10;36.00;;;;;;4995897;28;20128;-64
2021/09/21 11:16:12;;;;;;;1.45;1.33;;;25.20;36.10;;;;;;4999947;28;20045;-71
2021/09/21 11:18:43;;;;;;;1.30;1.20;;;25.20;36.00;;;;;;4992340;28;20057;-67
2021/09/21 11:21:11;;;;;;;1.13;1.13;;;25.30;36.10;;;;;;4995657;28;20042;-67
2021/09/21 11:23:42;;;;;;;2.08;1.02;;;25.40;36.20;;;;;;4996260;28;20042;-67
2021/09/21 11:26:12;;;;;;;1.55;1.30;;;25.40;36.20;;;;;;5001554;28;20073;-66
2021/09/21 11:28:44;;;;;;;1.00;0.90;;;25.50;36.30;;;;;;4997552;28;20727;-66
2021/09/21 11:31:27;;;;;;;1.85;1.20;;;25.60;36.10;;;;;;4995737;28;20042;-65
2021/09/21 11:33:56;;;;;;;1.10;0.85;;;25.60;36.10;;;;;;4989238;28;20045;-66
2021/09/21 11:36:23;;;;;;;1.25;1.17;;;25.60;36.10;;;;;;4993568;28;20772;-65
2021/09/21 11:38:52;;;;;;;1.17;1.17;;;25.70;36.10;;;;;;4996701;28;20478;-65
2021/09/21 11:41:37;;;;;;;2.03;1.23;;;25.70;36.20;;;;;;4993633;28;20097;-67
2021/09/21 11:44:06;;;;;;;2.10;0.90;;;25.70;36.10;;;;;;4990455;28;20049;-66
2021/09/21 11:46:33;;;;;;;2.67;1.10;;;25.80;36.50;;;;;;4983703;28;20145;-67
2021/09/21 11:49:02;;;;;;;1.20;1.10;;;25.80;36.70;;;;;;4982666;28;20061;-70
2021/09/21 11:51:34;;;;;;;1.90;1.20;;;25.80;36.80;;;;;;4992727;28;20070;-66
2021/09/21 11:54:03;;;;;;;1.92;1.00;;;25.90;37.00;;;;;;5000001;28;20137;-71
2021/09/21 11:56:30;;;;;;;2.65;1.10;;;25.90;37.00;;;;;;4998671;28;20119;-65
2021/09/21 11:58:59;;;;;;;3.08;1.20;;;25.90;36.90;;;;;;4995586;28;20052;-65
2021/09/21 12:01:51;;;;;;;3.87;1.13;;;26.00;36.70;;;;;;4996641;28;20092;-64
2021/09/21 12:04:19;;;;;;;1.33;1.13;;;26.00;36.60;;;;;;4996870;28;20057;-71
2021/09/21 12:06:47;;;;;;;2.53;0.90;;;26.00;36.50;;;;;;4995068;28;20050;-68
2021/09/21 12:09:14;;;;;;;1.08;0.98;;;26.10;36.60;;;;;;4999910;28;20068;-65
2021/09/21 12:11:43;;;;;;;1.20;1.10;;;26.00;36.30;;;;;;4993962;28;20068;-64
2021/09/21 12:14:11;;;;;;;1.45;1.00;;;26.10;36.20;;;;;;4998969;28;20070;-68
2021/09/21 12:16:38;;;;;;;0.90;0.90;;;26.10;36.10;;;;;;5002841;28;20108;-66
2021/09/21 12:19:16;;;;;;;0.98;0.95;;;26.10;35.90;;;;;;5003369;28;20050;-67
2021/09/21 12:21:45;;;;;;;2.47;0.95;;;26.10;36.00;;;;;;4993593;28;20060;-68
2021/09/21 12:24:12;;;;;;;2.05;0.93;;;26.10;36.10;;;;;;4995870;28;20112;-66
2021/09/21 12:26:40;;;;;;;2.20;1.63;;;26.10;36.10;;;;;;5002837;28;20455;-71
2021/09/21 12:29:08;;;;;;;1.30;0.93;;;26.00;36.00;;;;;;5002324;28;20056;-68
2021/09/21 12:31:43;;;;;;;3.88;1.67;;;26.00;35.90;;;;;;4996944;28;20042;-69
2021/09/21 12:34:14;;;;;;;1.33;0.80;;;26.00;35.60;;;;;;5000531;28;20053;-69
2021/09/21 12:36:52;;;;;;;4.72;1.30;;;26.00;35.60;;;;;;5001007;28;20046;-68
2021/09/21 12:39:22;;;;;;;1.13;1.10;;;26.00;35.70;;;;;;5006534;28;20073;-68
2021/09/21 12:41:50;;;;;;;;;;;26.00;35.80;;;;;;4994703;28;20060;-69
2021/09/21 12:44:21;;;;;;;2.38;1.65;;;25.90;35.70;;;;;;5000322;28;19926;-73
2021/09/21 12:46:51;;;;;;;;;;;25.90;36.10;;;;;;5004825;28;20391;-73
2021/09/21 12:49:20;;;;;;;2.30;1.27;;;25.80;35.80;;;;;;5006402;28;20011;-72
2021/09/21 12:51:56;;;;;;;2.08;0.82;;;25.80;35.80;;;;;;4995639;28;20046;-68
2021/09/21 12:54:25;;;;;;;1.30;1.20;;;25.80;35.70;;;;;;4998788;28;20045;-70
2021/09/21 12:56:58;;;;;;;1.80;1.67;;;25.80;35.90;;;;;;5008208;28;20133;-66
2021/09/21 12:59:27;;;;;;;1.63;1.20;;;25.80;36.20;;;;;;5004074;28;20145;-66
2021/09/21 13:01:54;;;;;;;1.83;1.05;;;25.80;36.50;;;;;;4996444;28;20042;-66
2021/09/21 13:04:39;;;;;;;2.50;1.10;;;25.90;36.60;;;;;;5003119;28;20041;-69
2021/09/21 13:07:08;;;;;;;3.80;1.25;;;25.90;36.60;;;;;;5006445;28;20141;-69
2021/09/21 13:09:35;;;;;;;1.00;0.90;;;25.90;36.40;;;;;;5005305;28;20145;-64
2021/09/21 13:12:03;;;;;;;2.25;1.25;;;26.00;36.30;;;;;;4997850;28;20117;-74
2021/09/21 13:14:30;;;;;;;1.30;1.20;;;26.00;35.10;;;;;;5005608;28;20071;-75
2021/09/21 13:17:00;;;;;;;3.05;1.50;;;25.90;31.50;;;;;;5009078;28;20060;-69
2021/09/21 13:19:32;;;;;;;1.90;1.50;;;25.70;30.50;;;;;;5004200;28;20046;-68
2021/09/21 13:22:00;;;;;;;3.47;1.50;;;25.50;29.90;;;;;;4995475;28;20168;-67
2021/09/21 13:24:28;;;;;;;2.17;1.83;;;25.30;30.80;;;;;;5000078;28;20046;-66
2021/09/21 13:26:56;;;;;;;1.10;1.00;;;25.20;32.10;;;;;;5003524;28;20045;-70
2021/09/21 13:29:31;;;;;;;2.05;1.05;;;25.20;33.00;;;;;;5004388;28;20046;-68
2021/09/21 13:31:58;;;;;;;1.65;1.52;;;25.20;33.60;;;;;;5011465;28;20128;-67
2021/09/21 13:34:25;;;;;;;3.40;1.17;;;25.20;34.10;;;;;;5019304;28;20053;-69
2021/09/21 13:36:52;;;;;;;1.60;1.15;;;25.20;34.30;;;;;;5018508;28;20534;-69
2021/09/21 13:39:19;;;;;;;2.15;1.35;;;25.30;34.60;;;;;;5018313;28;20049;-69
2021/09/21 13:41:47;;;;;;;1.88;1.38;;;25.40;35.00;;;;;;5005267;28;20129;-74
2021/09/21 13:44:14;;;;;;;1.23;1.15;;;25.40;35.00;;;;;;4998333;28;20978;-68